createdAt,value
2023-03-30T00:00:23.320Z,-0.51
2023-03-30T00:03:07.251Z,-0.54
2023-03-30T00:05:51.862Z,-0.75
2023-03-30T00:08:37.512Z,-1.59
2023-03-30T00:11:23.386Z,-0.79
2023-03-30T00:14:07.274Z,-0.83
2023-03-30T00:16:51.110Z,-0.76
2023-03-30T00:19:37.692Z,-0.83
2023-03-30T00:22:21.716Z,-0.84
2023-03-30T00:25:09.032Z,-0.96
2023-03-30T00:27:53.097Z,-1.05
2023-03-30T00:30:37.332Z,-0.89
2023-03-30T00:33:30.347Z,-0.95
2023-03-30T00:36:22.709Z,-0.82
2023-03-30T00:39:08.616Z,-0.76
2023-03-30T00:41:53.983Z,-0.89
2023-03-30T00:45:07.120Z,-0.90
2023-03-30T00:47:56.477Z,-1.17
2023-03-30T00:50:44.442Z,-0.96
2023-03-30T00:53:32.384Z,-1.26
2023-03-30T00:56:18.937Z,-1.22
2023-03-30T00:59:04.626Z,-1.40
2023-03-30T01:01:50.457Z,-1.50
2023-03-30T01:04:37.820Z,-1.54
2023-03-30T01:07:24.384Z,-1.36
2023-03-30T01:10:11.262Z,-1.61
2023-03-30T01:12:56.497Z,-1.40
2023-03-30T01:15:53.438Z,-1.76
2023-03-30T01:18:49.949Z,-1.33
2023-03-30T01:22:27.373Z,-1.41
2023-03-30T01:25:50.287Z,-1.18
2023-03-30T01:28:44.572Z,-1.50
2023-03-30T01:32:03.136Z,-1.23
2023-03-30T01:35:05.041Z,-1.15
2023-03-30T01:38:22.726Z,-1.52
2023-03-30T01:41:16.231Z,-1.36
2023-03-30T01:44:05.465Z,-1.25
2023-03-30T01:46:53.923Z,-1.08
2023-03-30T01:49:44.942Z,-1.43
2023-03-30T01:52:37.402Z,-1.24
2023-03-30T01:55:26.901Z,-1.41
2023-03-30T01:58:18.241Z,-1.54
2023-03-30T02:01:07.043Z,-1.33
2023-03-30T02:03:54.779Z,-1.31
2023-03-30T02:06:44.102Z,-1.75
2023-03-30T02:09:32.708Z,-1.89
2023-03-30T02:12:17.754Z,-2.14
2023-03-30T02:15:08.903Z,-1.45
2023-03-30T02:17:53.199Z,-1.54
2023-03-30T02:20:38.402Z,-1.11
2023-03-30T02:23:24.601Z,-1.20
2023-03-30T02:26:11.693Z,-1.20
2023-03-30T02:28:56.584Z,-1.23
2023-03-30T02:31:42.450Z,-1.29
2023-03-30T02:34:43.697Z,-1.55
2023-03-30T02:37:50.826Z,-1.69
2023-03-30T02:40:44.132Z,-1.28
2023-03-30T02:43:34.899Z,-1.19
2023-03-30T02:46:39.858Z,-1.51
2023-03-30T02:49:37.671Z,-1.50
2023-03-30T02:52:34.043Z,-1.58
2023-03-30T02:55:23.149Z,-1.82
2023-03-30T02:58:12.928Z,-1.88
2023-03-30T03:01:21.941Z,-1.55
2023-03-30T03:04:15.694Z,-1.67
2023-03-30T03:07:22.996Z,-1.42
2023-03-30T03:10:08.936Z,-1.70
2023-03-30T03:12:53.461Z,-1.87
2023-03-30T03:15:39.016Z,-1.34
2023-03-30T03:18:26.090Z,-1.39
2023-03-30T03:21:11.412Z,-1.66
2023-03-30T03:23:57.779Z,-1.64
2023-03-30T03:26:51.618Z,-1.80
2023-03-30T03:29:37.791Z,-1.77
2023-03-30T03:32:22.487Z,-1.73
2023-03-30T03:35:08.178Z,-1.72
2023-03-30T03:37:52.217Z,-1.83
2023-03-30T03:40:38.208Z,-1.80
2023-03-30T03:43:23.286Z,-1.49
2023-03-30T03:46:07.652Z,-1.59
2023-03-30T03:48:51.824Z,-1.50
2023-03-30T03:51:36.135Z,-1.59
2023-03-30T03:54:20.228Z,-1.70
2023-03-30T03:57:07.781Z,-1.35
2023-03-30T03:59:53.155Z,-1.55
2023-03-30T04:02:37.430Z,-1.21
2023-03-30T04:05:21.698Z,-1.69
2023-03-30T04:08:06.616Z,-1.62
2023-03-30T04:10:50.761Z,-1.72
2023-03-30T04:13:42.999Z,-1.09
2023-03-30T04:16:30.167Z,-1.70
2023-03-30T04:19:27.923Z,-1.39
2023-03-30T04:22:25.642Z,-1.54
2023-03-30T04:25:41.623Z,-1.31
2023-03-30T04:28:56.043Z,-1.37
2023-03-30T04:31:56.887Z,-0.95
2023-03-30T04:34:47.569Z,-1.27
2023-03-30T04:37:52.495Z,-1.08
2023-03-30T04:40:56.581Z,-1.21
2023-03-30T04:44:05.719Z,-0.78
2023-03-30T04:47:08.626Z,-1.17
2023-03-30T04:50:11.945Z,-0.86
2023-03-30T04:53:16.137Z,-1.48
2023-03-30T04:56:20.677Z,-0.76
2023-03-30T04:59:24.510Z,-1.35
2023-03-30T05:02:27.762Z,-1.09
2023-03-30T05:05:30.489Z,-1.12
2023-03-30T05:08:35.245Z,-0.71
2023-03-30T05:11:30.630Z,-0.45
2023-03-30T05:14:32.816Z,-0.48
2023-03-30T05:17:38.695Z,-0.10
2023-03-30T05:20:41.179Z,-0.17
2023-03-30T05:23:44.104Z,0.25
2023-03-30T05:26:36.792Z,0.55
2023-03-30T05:29:46.393Z,0.89
2023-03-30T05:32:48.992Z,1.19
2023-03-30T05:35:52.356Z,1.32
2023-03-30T05:38:51.450Z,1.62
2023-03-30T05:41:55.421Z,1.71
2023-03-30T05:44:57.841Z,1.52
2023-03-30T05:48:00.691Z,1.45
2023-03-30T05:51:02.836Z,1.05
2023-03-30T05:53:57.595Z,1.21
2023-03-30T05:57:02.273Z,0.92
2023-03-30T05:59:54.695Z,1.10
2023-03-30T06:02:58.049Z,0.80
2023-03-30T06:05:44.351Z,0.57
2023-03-30T06:08:28.903Z,0.77
2023-03-30T06:11:17.192Z,0.52
2023-03-30T06:14:06.191Z,0.56
2023-03-30T06:16:52.202Z,0.90
2023-03-30T06:19:37.549Z,0.96
2023-03-30T06:22:21.566Z,0.63
2023-03-30T06:25:16.748Z,0.66
2023-03-30T06:28:00.848Z,1.11
2023-03-30T06:30:45.644Z,1.40
2023-03-30T06:33:30.433Z,1.64
2023-03-30T06:36:18.791Z,1.65
2023-03-30T06:39:06.534Z,1.48
2023-03-30T06:41:51.734Z,2.01
2023-03-30T06:45:08.466Z,2.19
2023-03-30T06:47:52.511Z,2.63
2023-03-30T06:50:38.815Z,3.04
2023-03-30T06:53:34.281Z,3.37
2023-03-30T06:56:18.069Z,3.51
2023-03-30T06:59:22.162Z,3.71
2023-03-30T07:02:25.489Z,3.92
2023-03-30T07:05:25.854Z,4.27
2023-03-30T07:08:16.670Z,4.27
2023-03-30T07:11:08.930Z,4.48
2023-03-30T07:13:58.362Z,4.43
2023-03-30T07:16:42.401Z,4.43
2023-03-30T07:19:26.388Z,4.44
2023-03-30T07:22:10.631Z,4.54
2023-03-30T07:24:55.530Z,4.10
2023-03-30T07:27:41.324Z,4.49
2023-03-30T07:30:25.161Z,4.47
2023-03-30T07:33:16.125Z,4.43
2023-03-30T07:36:01.096Z,4.87
2023-03-30T07:38:45.062Z,4.75
2023-03-30T07:41:29.054Z,4.69
2023-03-30T07:44:17.129Z,4.89
2023-03-30T07:47:01.759Z,5.01
2023-03-30T07:49:45.700Z,4.85
2023-03-30T07:52:29.679Z,4.95
2023-03-30T07:55:18.374Z,5.25
2023-03-30T07:58:17.147Z,5.55
2023-03-30T08:01:03.817Z,5.58
2023-03-30T08:04:08.016Z,5.84
2023-03-30T08:06:53.669Z,5.26
2023-03-30T08:09:37.994Z,4.92
2023-03-30T08:12:21.798Z,5.61
2023-03-30T08:15:06.544Z,5.18
2023-03-30T08:17:51.910Z,5.65
2023-03-30T08:20:36.536Z,5.41
2023-03-30T08:23:20.581Z,5.48
2023-03-30T08:26:04.772Z,5.60
2023-03-30T08:28:48.690Z,5.33
2023-03-30T08:31:33.743Z,5.86
2023-03-30T08:34:19.403Z,5.78
2023-03-30T08:37:03.250Z,5.62
2023-03-30T08:39:47.074Z,5.86
2023-03-30T08:42:43.348Z,6.12
2023-03-30T08:45:35.008Z,5.78
2023-03-30T08:48:21.990Z,6.09
2023-03-30T08:51:16.607Z,6.00
2023-03-30T08:54:02.644Z,6.51
2023-03-30T08:57:00.578Z,6.60
2023-03-30T08:59:49.037Z,6.51
2023-03-30T09:02:38.026Z,6.61
2023-03-30T09:05:27.700Z,6.32
2023-03-30T09:08:17.538Z,6.48
2023-03-30T09:11:02.939Z,6.38
2023-03-30T09:13:48.608Z,6.00
2023-03-30T09:16:39.778Z,6.32
2023-03-30T09:19:28.788Z,6.56
2023-03-30T09:22:15.486Z,6.69
2023-03-30T09:25:01.533Z,6.57
2023-03-30T09:27:55.712Z,6.41
2023-03-30T09:30:41.784Z,6.86
2023-03-30T09:33:33.122Z,7.13
2023-03-30T09:36:19.155Z,6.68
2023-03-30T09:39:04.426Z,6.85
2023-03-30T09:42:09.319Z,6.77
2023-03-30T09:44:56.694Z,6.74
2023-03-30T09:47:42.591Z,7.08
2023-03-30T09:50:29.870Z,6.77
2023-03-30T09:53:26.413Z,6.93
2023-03-30T09:56:12.072Z,7.20
2023-03-30T09:58:57.578Z,7.33
2023-03-30T10:01:47.595Z,7.07
2023-03-30T10:04:31.493Z,7.71
2023-03-30T10:07:23.508Z,7.52
2023-03-30T10:10:28.245Z,7.01
2023-03-30T10:13:15.995Z,7.28
2023-03-30T10:16:06.584Z,7.27
2023-03-30T10:18:54.569Z,7.42
2023-03-30T10:21:40.545Z,7.27
2023-03-30T10:24:25.808Z,7.44
2023-03-30T10:27:14.297Z,7.61
2023-03-30T10:29:58.064Z,7.54
2023-03-30T10:32:46.946Z,7.66
2023-03-30T10:35:36.656Z,7.23
2023-03-30T10:38:21.508Z,8.16
2023-03-30T10:41:12.722Z,8.18
2023-03-30T10:43:56.835Z,7.84
2023-03-30T10:46:41.047Z,7.72
2023-03-30T10:49:41.118Z,6.71
2023-03-30T10:52:34.308Z,7.98
2023-03-30T10:55:22.845Z,7.85
2023-03-30T10:58:19.441Z,7.96
2023-03-30T11:01:12.791Z,8.29
2023-03-30T11:04:16.255Z,7.90
2023-03-30T11:07:17.837Z,8.09
2023-03-30T11:10:07.666Z,8.08
2023-03-30T11:12:57.512Z,8.00
2023-03-30T11:15:47.388Z,7.98
2023-03-30T11:18:37.439Z,8.25
2023-03-30T11:21:26.066Z,8.42
2023-03-30T11:24:16.151Z,8.44
2023-03-30T11:27:06.515Z,8.35
2023-03-30T11:29:54.909Z,8.37
2023-03-30T11:32:45.285Z,8.50
2023-03-30T11:35:36.326Z,8.49
2023-03-30T11:38:26.133Z,8.39
2023-03-30T11:41:16.450Z,8.60
2023-03-30T11:44:00.421Z,8.22
2023-03-30T11:46:55.043Z,8.04
2023-03-30T11:49:54.698Z,8.34
2023-03-30T11:52:46.279Z,8.60
2023-03-30T11:55:48.790Z,8.59
2023-03-30T11:58:37.369Z,8.75
2023-03-30T12:01:32.696Z,8.62
2023-03-30T12:04:22.367Z,8.74
2023-03-30T12:07:15.966Z,8.83
2023-03-30T12:10:05.979Z,8.79
2023-03-30T12:12:53.358Z,8.61
2023-03-30T12:15:49.080Z,8.80
2023-03-30T12:18:41.291Z,9.09
2023-03-30T12:21:33.178Z,8.87
2023-03-30T12:24:22.603Z,9.06
2023-03-30T12:27:08.489Z,8.74
2023-03-30T12:33:00.438Z,9.00
2023-03-30T12:35:59.856Z,8.86
2023-03-30T12:38:48.331Z,8.81
2023-03-30T12:41:42.778Z,9.50
2023-03-30T12:44:39.235Z,9.00
2023-03-30T12:47:45.510Z,9.40
2023-03-30T12:50:42.846Z,8.94
2023-03-30T12:53:58.925Z,9.36
2023-03-30T12:56:52.492Z,9.20
2023-03-30T12:59:59.486Z,9.48
2023-03-30T13:03:09.388Z,8.99
2023-03-30T13:05:57.365Z,9.59
2023-03-30T13:08:42.816Z,9.46
2023-03-30T13:11:26.750Z,9.44
2023-03-30T13:14:18.222Z,9.36
2023-03-30T13:17:14.966Z,9.62
2023-03-30T13:20:28.164Z,9.89
2023-03-30T13:23:28.542Z,9.68
2023-03-30T13:26:34.467Z,9.66
2023-03-30T13:29:19.440Z,9.92
2023-03-30T13:32:19.557Z,9.57
2023-03-30T13:35:19.560Z,9.89
2023-03-30T13:38:25.805Z,9.83
2023-03-30T13:41:23.117Z,9.75
2023-03-30T13:44:21.890Z,9.92
2023-03-30T13:47:17.109Z,9.78
2023-03-30T13:50:03.752Z,9.71
2023-03-30T13:52:50.999Z,10.27
2023-03-30T13:55:38.434Z,10.28
2023-03-30T13:58:28.814Z,9.82
2023-03-30T14:01:14.585Z,9.66
2023-03-30T14:04:00.976Z,9.83
2023-03-30T14:06:49.411Z,10.30
2023-03-30T14:09:33.260Z,9.97
2023-03-30T14:12:17.220Z,9.94
2023-03-30T14:15:03.343Z,9.92
2023-03-30T14:17:50.925Z,9.90
2023-03-30T14:20:47.780Z,9.73
2023-03-30T14:23:38.711Z,10.01
2023-03-30T14:26:26.449Z,10.15
2023-03-30T14:29:24.650Z,10.26
2023-03-30T14:32:19.671Z,10.16
2023-03-30T14:35:08.490Z,9.99
2023-03-30T14:37:53.534Z,10.06
2023-03-30T14:40:40.529Z,10.11
2023-03-30T14:43:26.152Z,10.29
2023-03-30T14:46:12.918Z,10.48
2023-03-30T14:48:59.240Z,10.58
2023-03-30T14:51:44.644Z,10.39
2023-03-30T14:54:29.952Z,10.29
2023-03-30T14:57:17.452Z,10.63
2023-03-30T15:00:08.215Z,10.45
2023-03-30T15:02:54.434Z,10.62
2023-03-30T15:05:42.671Z,10.12
2023-03-30T15:08:28.533Z,10.38
2023-03-30T15:11:16.011Z,10.56
2023-03-30T15:14:04.544Z,10.54
2023-03-30T15:16:53.609Z,10.47
2023-03-30T15:19:39.174Z,10.57
2023-03-30T15:22:29.037Z,10.45
2023-03-30T15:25:16.551Z,10.24
2023-03-30T15:28:03.700Z,10.94
2023-03-30T15:30:51.872Z,10.99
2023-03-30T15:33:37.606Z,10.95
2023-03-30T15:36:23.663Z,10.74
2023-03-30T15:39:21.935Z,10.89
2023-03-30T15:42:07.552Z,10.90
2023-03-30T15:45:02.533Z,10.59
2023-03-30T15:47:46.915Z,10.45
2023-03-30T15:50:30.991Z,10.60
2023-03-30T15:53:21.663Z,10.46
2023-03-30T15:56:13.835Z,10.31
2023-03-30T15:58:58.971Z,10.37
2023-03-30T16:01:45.260Z,10.36
2023-03-30T16:04:32.828Z,10.33
2023-03-30T16:07:19.238Z,10.33
2023-03-30T16:10:03.043Z,10.24
2023-03-30T16:12:49.405Z,9.81
2023-03-30T16:15:34.339Z,9.47
2023-03-30T16:18:18.160Z,9.18
2023-03-30T16:21:01.937Z,9.04
2023-03-30T16:23:45.865Z,9.00
2023-03-30T16:26:29.640Z,8.74
2023-03-30T16:29:21.550Z,8.75
2023-03-30T16:32:05.616Z,8.56
2023-03-30T16:34:49.709Z,8.29
2023-03-30T16:37:33.554Z,8.17
2023-03-30T16:40:26.879Z,8.05
2023-03-30T16:43:10.812Z,8.00
2023-03-30T16:45:55.948Z,7.83
2023-03-30T16:48:39.784Z,7.75
2023-03-30T16:51:25.183Z,7.64
2023-03-30T16:54:19.559Z,7.61
2023-03-30T16:57:11.741Z,7.54
2023-03-30T16:59:55.873Z,7.52
2023-03-30T17:02:41.069Z,7.33
2023-03-30T17:05:25.202Z,6.52
2023-03-30T17:08:17.236Z,5.91
2023-03-30T17:11:03.979Z,6.01
2023-03-30T17:13:49.162Z,5.75
2023-03-30T17:16:34.321Z,5.76
2023-03-30T17:19:19.834Z,5.53
2023-03-30T17:22:03.837Z,5.54
2023-03-30T17:24:47.670Z,5.46
2023-03-30T17:27:31.672Z,5.61
2023-03-30T17:30:22.627Z,5.25
2023-03-30T17:33:10.809Z,5.05
2023-03-30T17:35:59.060Z,5.11
2023-03-30T17:38:44.876Z,5.12
2023-03-30T17:41:29.046Z,5.14
2023-03-30T17:44:13.240Z,4.97
2023-03-30T17:46:57.098Z,4.77
2023-03-30T17:49:42.284Z,4.51
2023-03-30T17:52:30.513Z,4.30
2023-03-30T17:55:15.020Z,4.56
2023-03-30T17:57:59.209Z,4.62
2023-03-30T18:00:43.324Z,4.25
2023-03-30T18:03:29.529Z,4.05
2023-03-30T18:06:14.025Z,4.18
2023-03-30T18:08:59.699Z,3.88
2023-03-30T18:11:44.329Z,4.26
2023-03-30T18:14:28.244Z,4.11
2023-03-30T18:17:13.430Z,4.02
2023-03-30T18:19:57.574Z,3.99
2023-03-30T18:22:41.402Z,3.74
2023-03-30T18:25:32.343Z,3.44
2023-03-30T18:28:19.257Z,3.96
2023-03-30T18:31:03.559Z,3.85
2023-03-30T18:33:47.695Z,4.08
2023-03-30T18:36:31.896Z,4.02
2023-03-30T18:39:20.180Z,3.75
2023-03-30T18:42:05.769Z,3.26
2023-03-30T18:44:49.766Z,3.15
2023-03-30T18:47:33.691Z,3.30
2023-03-30T18:50:21.362Z,3.58
2023-03-30T18:53:07.120Z,3.49
2023-03-30T18:55:52.334Z,3.41
2023-03-30T18:58:42.168Z,3.49
2023-03-30T19:01:26.763Z,3.64
2023-03-30T19:04:10.861Z,3.11
2023-03-30T19:06:54.850Z,3.48
2023-03-30T19:09:43.354Z,3.58
2023-03-30T19:12:27.504Z,3.21
2023-03-30T19:15:23.719Z,3.38
2023-03-30T19:18:07.881Z,3.30
2023-03-30T19:20:57.409Z,3.15
2023-03-30T19:23:41.402Z,3.27
2023-03-30T19:26:25.320Z,3.63
2023-03-30T19:29:09.381Z,3.55
2023-03-30T19:31:55.326Z,3.58
2023-03-30T19:34:39.556Z,3.46
2023-03-30T19:37:24.110Z,3.65
2023-03-30T19:40:09.484Z,3.67
2023-03-30T19:42:53.574Z,3.52
2023-03-30T19:45:37.610Z,3.55
2023-03-30T19:48:23.519Z,3.58
2023-03-30T19:51:10.029Z,2.81
2023-03-30T19:53:54.088Z,2.85
2023-03-30T19:56:39.162Z,2.26
2023-03-30T19:59:23.408Z,2.85
2023-03-30T20:02:08.005Z,2.97
2023-03-30T20:04:54.670Z,2.76
2023-03-30T20:07:39.257Z,2.31
2023-03-30T20:10:26.246Z,2.22
2023-03-30T20:13:10.356Z,2.09
2023-03-30T20:15:57.135Z,2.26
2023-03-30T20:18:42.107Z,1.99
2023-03-30T20:21:27.817Z,2.16
2023-03-30T20:24:12.240Z,2.15
2023-03-30T20:26:56.378Z,2.29
2023-03-30T20:29:40.412Z,1.94
2023-03-30T20:32:24.401Z,2.04
2023-03-30T20:35:09.059Z,2.06
2023-03-30T20:37:55.461Z,2.21
2023-03-30T20:40:39.396Z,2.54
2023-03-30T20:43:26.130Z,2.55
2023-03-30T20:46:13.998Z,2.89
2023-03-30T20:49:02.075Z,2.85
2023-03-30T20:51:46.523Z,2.56
2023-03-30T20:54:32.152Z,2.84
2023-03-30T20:57:16.169Z,2.69
2023-03-30T21:00:00.943Z,2.62
2023-03-30T21:02:44.923Z,2.66
2023-03-30T21:05:28.674Z,2.64
2023-03-30T21:08:12.582Z,2.49
2023-03-30T21:10:57.819Z,2.31
2023-03-30T21:13:41.609Z,2.27
2023-03-30T21:16:26.665Z,2.38
2023-03-30T21:19:11.001Z,2.59
2023-03-30T21:21:54.795Z,2.49
2023-03-30T21:24:38.653Z,2.60
2023-03-30T21:27:23.738Z,2.68
2023-03-30T21:30:10.803Z,2.77
2023-03-30T21:32:54.639Z,2.73
2023-03-30T21:35:38.641Z,2.83
2023-03-30T21:38:23.683Z,2.81
2023-03-30T21:41:10.041Z,2.24
2023-03-30T21:43:55.327Z,1.88
2023-03-30T21:46:39.114Z,2.00
2023-03-30T21:49:22.929Z,1.89
2023-03-30T21:52:06.728Z,2.13
2023-03-30T21:54:51.072Z,2.14
2023-03-30T21:57:35.088Z,1.97
2023-03-30T22:00:20.501Z,1.93
2023-03-30T22:03:04.357Z,1.79
2023-03-30T22:05:48.778Z,1.92
2023-03-30T22:08:33.282Z,2.13
2023-03-30T22:11:19.109Z,2.05
2023-03-30T22:14:03.003Z,1.77
2023-03-30T22:16:48.313Z,1.76
2023-03-30T22:19:32.135Z,2.07
2023-03-30T22:22:16.176Z,1.89
2023-03-30T22:24:59.928Z,1.92
2023-03-30T22:27:44.745Z,1.49
2023-03-30T22:30:29.170Z,1.65
2023-03-30T22:33:14.444Z,1.83
2023-03-30T22:35:59.979Z,2.00
2023-03-30T22:38:44.034Z,1.85
2023-03-30T22:41:28.081Z,1.52
2023-03-30T22:44:11.855Z,1.93
2023-03-30T22:46:55.660Z,1.89
2023-03-30T22:49:41.167Z,1.62
2023-03-30T22:52:25.013Z,1.24
2023-03-30T22:55:09.694Z,1.54
2023-03-30T22:57:54.189Z,1.62
2023-03-30T23:00:38.276Z,1.47
2023-03-30T23:03:22.719Z,1.20
2023-03-30T23:06:09.220Z,1.43
2023-03-30T23:08:54.621Z,1.55
2023-03-30T23:11:39.029Z,1.75
2023-03-30T23:14:26.848Z,1.76
2023-03-30T23:17:10.637Z,1.79
2023-03-30T23:19:54.606Z,1.92
2023-03-30T23:22:39.864Z,1.80
2023-03-30T23:25:25.435Z,1.98
2023-03-30T23:28:09.127Z,1.87
2023-03-30T23:30:53.026Z,1.88
2023-03-30T23:33:36.837Z,1.86
2023-03-30T23:36:20.778Z,1.86
2023-03-30T23:39:05.945Z,1.52
2023-03-30T23:41:49.686Z,1.76
2023-03-30T23:44:33.484Z,1.93
2023-03-30T23:47:17.507Z,1.92
2023-03-30T23:50:01.512Z,1.94
2023-03-30T23:52:46.816Z,1.95
2023-03-30T23:55:33.719Z,2.15
2023-03-30T23:58:17.950Z,2.15
